createdAt,value
2022-09-01T00:00:29.980Z,23.80
2022-09-01T00:02:58.093Z,23.76
2022-09-01T00:05:26.106Z,23.72
2022-09-01T00:07:53.924Z,23.72
2022-09-01T00:10:21.871Z,23.70
2022-09-01T00:12:49.663Z,23.66
2022-09-01T00:15:17.654Z,23.63
2022-09-01T00:17:46.987Z,23.64
2022-09-01T00:20:20.062Z,23.61
2022-09-01T00:22:48.630Z,23.60
2022-09-01T00:25:18.850Z,23.56
2022-09-01T00:27:47.787Z,23.53
2022-09-01T00:30:15.941Z,23.52
2022-09-01T00:32:46.755Z,23.49
2022-09-01T00:35:17.353Z,23.48
2022-09-01T00:37:45.546Z,23.46
2022-09-01T00:40:16.426Z,23.40
2022-09-01T00:42:45.330Z,23.40
2022-09-01T00:45:13.390Z,23.38
2022-09-01T00:47:41.393Z,23.35
2022-09-01T00:50:12.851Z,23.31
2022-09-01T00:52:46.387Z,23.31
2022-09-01T00:55:18.770Z,23.25
2022-09-01T00:57:47.601Z,23.21
2022-09-01T01:00:19.020Z,23.20
2022-09-01T01:02:48.473Z,23.15
2022-09-01T01:05:17.282Z,23.11
2022-09-01T01:07:48.013Z,23.07
2022-09-01T01:10:17.726Z,23.04
2022-09-01T01:12:47.403Z,22.96
2022-09-01T01:15:17.200Z,22.88
2022-09-01T01:17:45.346Z,22.94
2022-09-01T01:20:35.571Z,22.92
2022-09-01T01:23:11.229Z,22.90
2022-09-01T01:25:43.315Z,22.86
2022-09-01T01:28:15.758Z,22.84
2022-09-01T01:30:52.711Z,22.81
2022-09-01T01:33:23.425Z,22.77
2022-09-01T01:35:53.823Z,22.73
2022-09-01T01:38:22.925Z,22.68
2022-09-01T01:40:54.080Z,22.66
2022-09-01T01:43:23.066Z,22.62
2022-09-01T01:45:52.306Z,22.57
2022-09-01T01:48:23.125Z,22.53
2022-09-01T01:50:52.386Z,22.48
2022-09-01T01:53:21.014Z,22.43
2022-09-01T01:55:50.423Z,22.44
2022-09-01T01:58:20.509Z,22.41
2022-09-01T02:00:51.366Z,22.36
2022-09-01T02:03:22.050Z,22.35
2022-09-01T02:05:53.572Z,22.33
2022-09-01T02:08:26.078Z,22.29
2022-09-01T02:10:58.077Z,22.27
2022-09-01T02:13:30.354Z,22.25
2022-09-01T02:16:02.098Z,22.20
2022-09-01T02:18:34.300Z,22.17
2022-09-01T02:21:03.274Z,22.12
2022-09-01T02:23:32.924Z,22.08
2022-09-01T02:26:16.182Z,22.05
2022-09-01T02:28:54.759Z,22.05
2022-09-01T02:31:25.241Z,22.04
2022-09-01T02:33:54.441Z,22.02
2022-09-01T02:36:25.445Z,21.97
2022-09-01T02:38:56.463Z,21.99
2022-09-01T02:41:29.509Z,21.98
2022-09-01T02:44:02.290Z,21.97
2022-09-01T02:46:31.211Z,21.97
2022-09-01T02:49:00.657Z,21.96
2022-09-01T02:51:28.823Z,21.97
2022-09-01T02:53:56.930Z,21.97
2022-09-01T02:56:27.409Z,22.00
2022-09-01T02:58:56.718Z,22.01
2022-09-01T03:01:29.591Z,22.01
2022-09-01T03:04:01.272Z,22.01
2022-09-01T03:06:34.193Z,22.01
2022-09-01T03:09:03.942Z,22.01
2022-09-01T03:11:37.141Z,22.02
2022-09-01T03:14:05.499Z,22.00
2022-09-01T03:16:35.562Z,21.99
2022-09-01T03:19:04.286Z,21.97
2022-09-01T03:21:32.876Z,21.96
2022-09-01T03:24:02.140Z,21.96
2022-09-01T03:26:30.648Z,21.94
2022-09-01T03:28:59.439Z,21.93
2022-09-01T03:31:31.163Z,21.91
2022-09-01T03:34:03.519Z,21.91
2022-09-01T03:36:33.325Z,21.88
2022-09-01T03:39:01.983Z,21.86
2022-09-01T03:41:32.153Z,21.83
2022-09-01T03:44:00.673Z,21.82
2022-09-01T03:46:36.279Z,21.80
2022-09-01T03:49:07.319Z,21.79
2022-09-01T03:51:39.454Z,21.77
2022-09-01T03:54:07.622Z,21.75
2022-09-01T03:56:35.670Z,21.73
2022-09-01T03:59:03.774Z,21.68
2022-09-01T04:01:33.695Z,21.67
2022-09-01T04:04:01.848Z,21.66
2022-09-01T04:06:31.045Z,21.65
2022-09-01T04:09:03.289Z,21.61
2022-09-01T04:11:32.413Z,21.60
2022-09-01T04:14:03.023Z,21.55
2022-09-01T04:16:51.947Z,21.59
2022-09-01T04:19:26.504Z,21.58
2022-09-01T04:21:59.723Z,21.56
2022-09-01T04:24:29.588Z,21.52
2022-09-01T04:27:00.288Z,21.50
2022-09-01T04:29:28.292Z,21.46
2022-09-01T04:31:56.999Z,21.43
2022-09-01T04:34:26.291Z,21.39
2022-09-01T04:36:57.014Z,21.35
2022-09-01T04:39:25.279Z,21.31
2022-09-01T04:41:53.369Z,21.27
2022-09-01T04:44:22.221Z,21.23
2022-09-01T04:46:51.019Z,21.13
2022-09-01T04:49:22.454Z,21.15
2022-09-01T04:51:54.012Z,21.13
2022-09-01T04:54:23.982Z,21.11
2022-09-01T04:56:54.141Z,21.06
2022-09-01T04:59:24.220Z,21.04
2022-09-01T05:01:54.976Z,21.02
2022-09-01T05:04:27.348Z,20.98
2022-09-01T05:07:00.781Z,20.96
2022-09-01T05:09:31.442Z,20.92
2022-09-01T05:12:12.857Z,20.88
2022-09-01T05:14:45.250Z,20.84
2022-09-01T05:17:14.777Z,20.80
2022-09-01T05:19:47.691Z,20.73
2022-09-01T05:22:16.603Z,20.72
2022-09-01T05:24:45.790Z,20.71
2022-09-01T05:27:14.540Z,20.66
2022-09-01T05:29:42.655Z,20.64
2022-09-01T05:32:10.860Z,20.61
2022-09-01T05:34:39.796Z,20.60
2022-09-01T05:37:12.227Z,20.60
2022-09-01T05:39:40.296Z,20.58
2022-09-01T05:42:09.587Z,20.58
2022-09-01T05:44:39.438Z,20.57
2022-09-01T05:47:10.142Z,20.58
2022-09-01T05:49:48.090Z,20.56
2022-09-01T05:52:16.290Z,20.56
2022-09-01T05:54:44.141Z,20.56
2022-09-01T05:57:33.431Z,20.58
2022-09-01T06:00:02.309Z,20.59
2022-09-01T06:02:31.000Z,20.62
2022-09-01T06:05:00.322Z,20.67
2022-09-01T06:07:28.834Z,20.72
2022-09-01T06:09:57.045Z,20.78
2022-09-01T06:12:28.336Z,20.83
2022-09-01T06:14:57.135Z,20.89
2022-09-01T06:17:28.516Z,20.94
2022-09-01T06:19:57.767Z,20.95
2022-09-01T06:22:27.947Z,21.01
2022-09-01T06:25:01.797Z,21.05
2022-09-01T06:27:31.727Z,21.11
2022-09-01T06:29:59.748Z,21.16
2022-09-01T06:32:27.961Z,21.21
2022-09-01T06:34:58.133Z,21.27
2022-09-01T06:37:27.127Z,21.33
2022-09-01T06:39:55.389Z,21.38
2022-09-01T06:42:23.578Z,21.43
2022-09-01T06:44:53.143Z,21.49
2022-09-01T06:47:21.207Z,21.55
2022-09-01T06:49:53.557Z,21.58
2022-09-01T06:52:23.797Z,21.62
2022-09-01T06:54:54.979Z,21.66
2022-09-01T07:03:08.523Z,21.90
2022-09-01T07:08:25.436Z,22.10
2022-09-01T07:16:51.754Z,22.48
2022-09-01T07:19:21.202Z,22.61
2022-09-01T07:24:37.415Z,22.85
2022-09-01T07:27:09.341Z,22.96
2022-09-01T07:29:37.380Z,23.07
2022-09-01T07:34:56.174Z,23.27
2022-09-01T07:43:09.650Z,23.57
2022-09-01T07:45:47.283Z,23.64
2022-09-01T07:53:57.406Z,23.94
2022-09-01T07:56:26.272Z,24.03
2022-09-01T07:58:54.360Z,24.11
2022-09-01T08:01:25.038Z,24.19
2022-09-01T08:03:56.077Z,24.28
2022-09-01T08:06:27.292Z,24.37
2022-09-01T08:08:58.531Z,24.47
2022-09-01T08:14:18.161Z,24.66
2022-09-01T08:16:54.103Z,24.75
2022-09-01T08:19:24.859Z,24.86
2022-09-01T08:21:52.846Z,24.94
2022-09-01T08:24:21.986Z,25.03
2022-09-01T08:26:49.769Z,25.11
2022-09-01T08:29:17.895Z,25.14
2022-09-01T08:31:47.776Z,25.27
2022-09-01T08:34:17.018Z,25.35
2022-09-01T08:36:46.261Z,25.44
2022-09-01T08:39:14.080Z,25.49
2022-09-01T08:41:46.830Z,25.59
2022-09-01T08:44:28.533Z,25.68
2022-09-01T08:47:03.170Z,25.76
2022-09-01T08:49:42.492Z,25.84
2022-09-01T08:52:24.150Z,25.94
2022-09-01T08:54:57.573Z,26.05
2022-09-01T08:57:32.200Z,26.09
2022-09-01T09:00:00.261Z,26.17
2022-09-01T09:02:47.884Z,26.24
2022-09-01T09:05:29.237Z,26.32
2022-09-01T09:08:14.398Z,26.38
2022-09-01T09:10:52.230Z,26.44
2022-09-01T09:13:25.682Z,26.51
2022-09-01T09:16:13.694Z,26.57
2022-09-01T09:19:00.624Z,26.68
2022-09-01T09:21:33.692Z,26.76
2022-09-01T09:24:11.157Z,26.87
2022-09-01T09:26:42.528Z,26.93
2022-09-01T09:29:10.706Z,27.02
2022-09-01T09:31:45.951Z,27.10
2022-09-01T09:34:29.720Z,27.14
2022-09-01T09:36:57.546Z,27.18
2022-09-01T09:39:30.464Z,27.15
2022-09-01T09:42:11.952Z,27.20
2022-09-01T09:44:45.312Z,27.25
2022-09-01T09:47:43.727Z,27.31
2022-09-01T09:50:20.847Z,27.34
2022-09-01T09:52:49.613Z,27.37
2022-09-01T09:55:26.564Z,27.38
2022-09-01T09:57:57.509Z,27.36
2022-09-01T10:00:28.425Z,27.41
2022-09-01T10:03:01.549Z,27.49
2022-09-01T10:05:39.754Z,27.53
2022-09-01T10:08:10.365Z,27.56
2022-09-01T10:10:43.102Z,27.63
2022-09-01T10:13:15.671Z,27.66
2022-09-01T10:15:51.237Z,27.70
2022-09-01T10:18:22.248Z,27.72
2022-09-01T10:21:01.765Z,27.78
2022-09-01T10:23:31.686Z,27.75
2022-09-01T10:26:06.505Z,27.82
2022-09-01T10:28:49.937Z,27.84
2022-09-01T10:31:20.145Z,27.84
2022-09-01T10:33:48.547Z,27.87
2022-09-01T10:36:18.254Z,27.84
2022-09-01T10:38:53.530Z,27.87
2022-09-01T10:41:48.267Z,27.91
2022-09-01T10:44:21.303Z,27.93
2022-09-01T10:46:50.834Z,27.94
2022-09-01T10:50:07.626Z,27.93
2022-09-01T10:52:57.774Z,27.98
2022-09-01T10:55:33.713Z,28.05
2022-09-01T11:01:11.696Z,28.17
2022-09-01T11:03:56.552Z,28.27
2022-09-01T11:07:17.234Z,28.33
2022-09-01T11:10:31.969Z,28.45
2022-09-01T11:13:23.176Z,28.52
2022-09-01T11:15:52.906Z,28.57
2022-09-01T11:18:27.592Z,28.62
2022-09-01T11:20:57.960Z,28.64
2022-09-01T11:23:30.508Z,28.66
2022-09-01T11:28:48.457Z,28.73
2022-09-01T11:31:23.465Z,28.82
2022-09-01T11:34:24.672Z,28.88
2022-09-01T11:37:00.319Z,28.95
2022-09-01T11:39:40.706Z,29.02
2022-09-01T11:42:14.544Z,29.09
2022-09-01T11:44:49.520Z,29.13
2022-09-01T11:47:22.967Z,29.21
2022-09-01T11:49:55.098Z,29.18
2022-09-01T11:52:26.181Z,29.12
2022-09-01T11:54:55.555Z,29.16
2022-09-01T11:57:27.635Z,29.13
2022-09-01T11:59:56.386Z,29.18
2022-09-01T12:02:27.902Z,29.22
2022-09-01T12:04:57.528Z,29.26
2022-09-01T12:07:31.355Z,29.31
2022-09-01T12:09:59.609Z,29.33
2022-09-01T12:12:32.996Z,29.38
2022-09-01T12:15:06.112Z,29.39
2022-09-01T12:17:37.117Z,29.41
2022-09-01T12:20:28.129Z,29.42
2022-09-01T12:22:58.153Z,29.40
2022-09-01T12:25:28.547Z,29.31
2022-09-01T12:27:56.920Z,29.25
2022-09-01T12:30:25.926Z,29.15
2022-09-01T12:33:22.782Z,29.05
2022-09-01T12:35:44.053Z,28.93
2022-09-01T12:38:23.864Z,28.90
2022-09-01T12:40:54.323Z,28.81
2022-09-01T12:43:35.481Z,28.86
2022-09-01T12:46:04.690Z,28.87
2022-09-01T12:48:35.889Z,28.90
2022-09-01T12:51:09.535Z,28.95
2022-09-01T12:53:37.951Z,28.99
2022-09-01T12:56:22.825Z,29.05
2022-09-01T12:58:54.951Z,29.07
2022-09-01T13:01:29.870Z,29.11
2022-09-01T13:04:28.442Z,29.12
2022-09-01T13:07:01.615Z,29.13
2022-09-01T13:09:30.070Z,29.13
2022-09-01T13:12:12.199Z,29.12
2022-09-01T13:14:40.365Z,29.07
2022-09-01T13:17:14.083Z,29.05
2022-09-01T13:19:57.981Z,29.04
2022-09-01T13:22:26.021Z,29.01
2022-09-01T13:24:54.072Z,28.85
2022-09-01T13:27:23.507Z,28.76
2022-09-01T13:29:52.537Z,28.78
2022-09-01T13:32:22.538Z,28.75
2022-09-01T13:34:52.496Z,28.79
2022-09-01T13:37:23.229Z,28.79
2022-09-01T13:39:51.619Z,28.85
2022-09-01T13:42:20.042Z,28.87
2022-09-01T13:44:52.501Z,28.89
2022-09-01T13:47:31.804Z,28.93
2022-09-01T13:50:09.746Z,28.97
2022-09-01T13:52:41.060Z,29.02
2022-09-01T13:55:12.205Z,29.06
2022-09-01T13:57:40.311Z,29.08
2022-09-01T14:00:11.891Z,29.09
2022-09-01T14:02:40.546Z,29.10
2022-09-01T14:05:09.511Z,29.11
2022-09-01T14:07:37.685Z,29.10
2022-09-01T14:10:08.992Z,29.14
2022-09-01T14:12:37.568Z,29.15
2022-09-01T14:15:12.320Z,29.16
2022-09-01T14:17:44.014Z,29.12
2022-09-01T14:20:15.347Z,29.08
2022-09-01T14:22:43.407Z,28.80
2022-09-01T14:25:12.913Z,28.80
2022-09-01T14:27:42.455Z,28.84
2022-09-01T14:30:19.847Z,28.88
2022-09-01T14:32:47.688Z,28.90
2022-09-01T14:35:17.714Z,28.95
2022-09-01T14:37:45.724Z,28.97
2022-09-01T14:40:17.285Z,28.93
2022-09-01T14:42:47.667Z,28.99
2022-09-01T14:45:16.673Z,28.93
2022-09-01T14:47:45.028Z,28.87
2022-09-01T14:50:15.953Z,28.78
2022-09-01T14:52:47.203Z,28.85
2022-09-01T14:55:17.084Z,28.89
2022-09-01T14:57:45.088Z,28.91
2022-09-01T15:00:14.257Z,28.94
2022-09-01T15:02:44.224Z,28.98
2022-09-01T15:05:14.324Z,28.97
2022-09-01T15:07:43.076Z,28.91
2022-09-01T15:10:16.029Z,28.95
2022-09-01T15:12:55.197Z,28.81
2022-09-01T15:15:23.715Z,28.83
2022-09-01T15:17:51.572Z,28.67
2022-09-01T15:20:36.788Z,28.72
2022-09-01T15:23:05.438Z,28.64
2022-09-01T15:25:33.292Z,28.55
2022-09-01T15:28:02.802Z,28.61
2022-09-01T15:30:31.133Z,28.66
2022-09-01T15:32:58.980Z,28.68
2022-09-01T15:35:30.982Z,28.72
2022-09-01T15:37:59.365Z,28.75
2022-09-01T15:40:28.256Z,28.78
2022-09-01T15:42:57.583Z,28.81
2022-09-01T15:45:28.793Z,28.84
2022-09-01T15:47:56.912Z,28.85
2022-09-01T15:50:27.903Z,28.86
2022-09-01T15:52:58.626Z,28.87
2022-09-01T15:55:29.109Z,28.83
2022-09-01T15:57:56.965Z,28.85
2022-09-01T16:00:27.709Z,28.87
2022-09-01T16:02:56.593Z,28.82
2022-09-01T16:05:25.090Z,28.81
2022-09-01T16:07:53.633Z,28.69
2022-09-01T16:10:21.784Z,28.61
2022-09-01T16:12:51.801Z,28.67
2022-09-01T16:15:22.206Z,28.67
2022-09-01T16:18:13.530Z,28.68
2022-09-01T16:20:55.509Z,28.55
2022-09-01T16:23:25.611Z,28.62
2022-09-01T16:25:54.764Z,28.62
2022-09-01T16:28:27.731Z,28.55
2022-09-01T16:31:02.280Z,28.56
2022-09-01T16:33:33.938Z,28.56
2022-09-01T16:36:17.173Z,28.56
2022-09-01T16:38:50.393Z,28.56
2022-09-01T16:41:29.796Z,28.55
2022-09-01T16:44:07.513Z,28.53
2022-09-01T16:46:45.594Z,28.53
2022-09-01T16:49:21.684Z,28.53
2022-09-01T16:51:58.503Z,28.51
2022-09-01T16:54:37.034Z,28.48
2022-09-01T16:57:12.089Z,28.45
2022-09-01T16:59:53.280Z,28.42
2022-09-01T17:02:41.988Z,28.39
2022-09-01T17:05:22.067Z,28.38
2022-09-01T17:07:53.627Z,28.36
2022-09-01T17:10:32.829Z,28.36
2022-09-01T17:13:16.574Z,28.35
2022-09-01T17:15:48.302Z,28.33
2022-09-01T17:18:21.952Z,28.31
2022-09-01T17:20:57.984Z,28.31
2022-09-01T17:23:29.227Z,28.29
2022-09-01T17:26:01.808Z,28.28
2022-09-01T17:28:35.670Z,28.26
2022-09-01T17:31:14.449Z,28.23
2022-09-01T17:33:56.330Z,28.20
2022-09-01T17:36:36.047Z,28.17
2022-09-01T17:39:14.164Z,28.12
2022-09-01T17:41:48.696Z,28.09
2022-09-01T17:44:24.264Z,28.02
2022-09-01T17:47:00.640Z,27.97
2022-09-01T17:49:37.555Z,27.91
2022-09-01T17:52:15.134Z,27.86
2022-09-01T17:54:52.316Z,27.80
2022-09-01T17:57:27.248Z,27.74
2022-09-01T18:00:02.927Z,27.70
2022-09-01T18:03:07.355Z,27.61
2022-09-01T18:05:41.282Z,27.56
2022-09-01T18:08:28.018Z,27.50
2022-09-01T18:10:59.943Z,27.42
2022-09-01T18:13:51.907Z,27.35
2022-09-01T18:16:21.622Z,27.29
2022-09-01T18:18:51.278Z,27.24
2022-09-01T18:21:21.294Z,27.18
2022-09-01T18:23:55.626Z,27.13
2022-09-01T18:26:29.697Z,27.07
2022-09-01T18:28:58.042Z,26.99
2022-09-01T18:31:56.871Z,26.94
2022-09-01T18:34:37.258Z,26.89
2022-09-01T18:37:16.347Z,26.82
2022-09-01T18:39:58.310Z,26.77
2022-09-01T18:42:32.925Z,26.71
2022-09-01T18:45:06.592Z,26.64
2022-09-01T18:47:36.910Z,26.54
2022-09-01T18:50:15.281Z,26.49
2022-09-01T18:52:58.514Z,26.45
2022-09-01T18:55:37.298Z,26.39
2022-09-01T18:58:09.923Z,26.31
2022-09-01T19:00:45.280Z,26.26
2022-09-01T19:03:23.993Z,26.20
2022-09-01T19:06:09.626Z,26.14
2022-09-01T19:08:47.718Z,26.14
2022-09-01T19:11:26.505Z,26.10
2022-09-01T19:14:05.717Z,26.03
2022-09-01T19:16:46.847Z,25.95
2022-09-01T19:19:28.955Z,25.90
2022-09-01T19:21:57.260Z,25.81
2022-09-01T19:24:30.348Z,25.73
2022-09-01T19:27:04.466Z,25.72
2022-09-01T19:29:37.289Z,25.68
2022-09-01T19:32:08.735Z,25.62
2022-09-01T19:34:40.577Z,25.58
2022-09-01T19:37:08.847Z,25.51
2022-09-01T19:39:39.923Z,25.48
2022-09-01T19:42:14.820Z,25.43
2022-09-01T19:44:55.028Z,25.41
2022-09-01T19:47:30.046Z,25.37
2022-09-01T19:50:05.391Z,25.34
2022-09-01T19:52:39.541Z,25.29
2022-09-01T19:55:13.712Z,25.25
2022-09-01T19:57:50.669Z,25.21
2022-09-01T20:00:25.418Z,25.16
2022-09-01T20:03:01.072Z,25.13
2022-09-01T20:05:32.769Z,25.09
2022-09-01T20:08:04.182Z,25.05
2022-09-01T20:10:56.591Z,25.00
2022-09-01T20:14:03.036Z,24.95
2022-09-01T20:16:35.322Z,24.92
2022-09-01T20:19:09.031Z,24.88
2022-09-01T20:21:40.199Z,24.83
2022-09-01T20:24:15.297Z,24.80
2022-09-01T20:26:50.066Z,24.76
2022-09-01T20:29:26.049Z,24.72
2022-09-01T20:31:58.233Z,24.66
2022-09-01T20:34:32.873Z,24.61
2022-09-01T20:37:05.492Z,24.57
2022-09-01T20:39:58.199Z,24.52
2022-09-01T20:42:37.167Z,24.47
2022-09-01T20:45:13.509Z,24.43
2022-09-01T20:47:42.973Z,24.37
2022-09-01T20:50:13.278Z,24.33
2022-09-01T20:52:51.497Z,24.29
2022-09-01T20:55:26.358Z,24.26
2022-09-01T20:58:01.883Z,24.17
2022-09-01T21:00:34.397Z,24.19
2022-09-01T21:03:15.445Z,24.16
2022-09-01T21:05:50.998Z,24.13
2022-09-01T21:08:34.637Z,24.10
2022-09-01T21:11:25.883Z,24.08
2022-09-01T21:14:06.806Z,24.04
2022-09-01T21:16:45.966Z,24.02
2022-09-01T21:19:23.066Z,23.97
2022-09-01T21:22:00.992Z,23.94
2022-09-01T21:24:28.783Z,23.91
2022-09-01T21:26:57.555Z,23.87
2022-09-01T21:29:34.052Z,23.86
2022-09-01T21:32:03.848Z,23.82
2022-09-01T21:34:31.794Z,23.78
2022-09-01T21:37:01.004Z,23.75
2022-09-01T21:39:28.882Z,23.72
2022-09-01T21:41:57.777Z,23.69
2022-09-01T21:44:26.284Z,23.66
2022-09-01T21:46:54.225Z,23.64
2022-09-01T21:49:24.112Z,23.61
2022-09-01T21:51:52.019Z,23.59
2022-09-01T21:54:20.035Z,23.53
2022-09-01T21:56:48.709Z,23.47
2022-09-01T21:59:17.150Z,23.49
2022-09-01T22:01:45.167Z,23.47
2022-09-01T22:04:13.695Z,23.44
2022-09-01T22:06:42.862Z,23.40
2022-09-01T22:09:20.827Z,23.36
2022-09-01T22:11:51.109Z,23.34
2022-09-01T22:14:19.880Z,23.29
2022-09-01T22:16:48.274Z,23.24
2022-09-01T22:19:17.139Z,23.18
2022-09-01T22:21:46.771Z,23.18
2022-09-01T22:24:14.612Z,23.13
2022-09-01T22:26:48.281Z,23.06
2022-09-01T22:29:17.425Z,23.05
2022-09-01T22:31:45.875Z,22.99
2022-09-01T22:34:14.106Z,22.93
2022-09-01T22:36:47.549Z,22.90
2022-09-01T22:39:16.806Z,22.86
2022-09-01T22:41:44.618Z,22.82
2022-09-01T22:44:12.919Z,22.77
2022-09-01T22:46:41.909Z,22.72
2022-09-01T22:49:10.324Z,22.70
2022-09-01T22:51:39.716Z,22.66
2022-09-01T22:54:09.988Z,22.64
2022-09-01T22:56:40.120Z,22.61
2022-09-01T22:59:11.038Z,22.60
2022-09-01T23:01:43.060Z,22.60
2022-09-01T23:04:13.004Z,22.58
2022-09-01T23:06:43.749Z,22.57
2022-09-01T23:09:14.021Z,22.56
2022-09-01T23:11:42.499Z,22.53
2022-09-01T23:14:10.542Z,22.51
2022-09-01T23:16:38.715Z,22.50
2022-09-01T23:19:07.519Z,22.48
2022-09-01T23:21:37.773Z,22.46
2022-09-01T23:24:06.587Z,22.45
2022-09-01T23:26:36.193Z,22.43
2022-09-01T23:29:05.220Z,22.40
2022-09-01T23:31:35.889Z,22.38
2022-09-01T23:34:04.820Z,22.36
2022-09-01T23:36:33.118Z,22.34
2022-09-01T23:39:01.425Z,22.29
2022-09-01T23:41:32.151Z,22.32
2022-09-01T23:44:03.384Z,22.32
2022-09-01T23:46:34.588Z,22.29
2022-09-01T23:49:03.150Z,22.26
2022-09-01T23:51:31.246Z,22.19
2022-09-01T23:53:59.889Z,22.23
2022-09-01T23:56:29.660Z,22.20
2022-09-01T23:58:58.348Z,22.17
